Vancouver, Canada
Current Conditions -  °F | °C
As of 3:00 PM on Friday 28 Nov 2014 (Local Time) from CYVR Reporting Station
Few Clouds Few Clouds  
Wind Chill:   Ceiling: Unl
Heat Index:   Visibility: 30mi
Dew Point:   Wind: 21mph
Humidity: 66%   Direction: 280°W
Pressure: 29.45"   Gusts: 28mph
Location:  49.26°N, 123.11°W
Report Text: CYVR 282300Z 28018G24KT 30SM FEW240 06/00 A2945 RMK CC1 SLP974
Loading
Personal Weather Stations






























Interactive Weather Map New forecast layout! Learn more

10-Day Weather Forecast

Advertisements
Track Severe Weather on mobile